Terminal Aerodrome Forecast
Issued by NWS

Home | Current Version | Previous Version | Text Only | Print | Product List | Glossary On
Versions: 1 2 3 4 5 6 7 8 9 10 11 12 13 14 15 16 17 18 19
066
FTPA31 PHFO 041140
TAFHLI
TAF
PHLI 041140Z 0412/0512 06015KT P6SM -SHRA SCT015 BKN035
      TEMPO 0412/0416 BKN015=

USA.gov is the U.S. government's official web portal to all federal, state and local government web resources and services.